Tarrants, Missouri
Current Conditions -  °F | °C
As of 3:35 AM on Thursday 27 Nov 2014 (Local Time) from KPPQ Reporting Station
Overcast Overcast  
Wind Chill: 20°   Ceiling: 1600
Heat Index: 28°   Visibility: 7mi
Dew Point: 25°   Wind: 8mph
Humidity: 86%   Direction: 310°NW
Pressure: 30.38"   Gusts: NA
Location:  39.321°N, 91.1912°W
Report Text: KPPQ 270935Z AUTO 31007KT 7SM OVC016 M02/M04 A3038 RMK AO2 T10201040 PWINO
Loading
Personal Weather Stations






























Interactive Weather Map New forecast layout! Learn more

10-Day Weather Forecast

Advertisements
Track Severe Weather on mobile